Bookmark and Share
Track history (hours):
 

Hachinohemaru

Last reported at 2014-Apr-17 23:24 UTC. Time now 2014-Apr-21 07:28 UTC.
Position N 34°39' E 139°32'.

Length 168 m; draft 6.5 m.

Type: Cargo ship. MMSI: 431700018.

NotesDate/timePositionNaut miles runAvg speedWind from/ knotsBaromVisibWave heightAir tempDewpointWater temp
2014-Apr-17 23:24N 34°39' E 139°32'1214.4
2014-Apr-17 22:32N 34°44' E 139°46'1414.1
2014-Apr-17 21:33N 34°49' E 140°02'1414.1
2014-Apr-17 20:33N 34°57' E 140°15'1413.7
2014-Apr-17 19:30N 35°06' E 140°29'1414.1
2014-Apr-17 18:32N 35°17' E 140°38'1313.4
2014-Apr-17 17:34N 35°28' E 140°47'1313.3
2014-Apr-17 16:33N 35°40' E 140°55'1312.9
2014-Apr-17 15:33N 35°52' E 140°50'8 7.2
2014-Apr-17 14:27N 35°56' E 140°41'0 0.0
2014-Apr-17 04:21N 35°55' E 140°41'  
2014-Apr-14 17:33N 36°06' E 140°46'1111.4
2014-Apr-14 16:33N 35°56' E 140°41'  
2014-Apr-11 17:30N 36°05' E 140°46'6 0.4
2014-Apr-11 00:34N 35°58' E 140°46'3310.9
2014-Apr-10 21:29N 35°25' E 140°47'1514.1
2014-Apr-10 20:24N 35°12' E 140°36'2612.6
2014-Apr-10 18:22N 34°55' E 140°13'39913.8
2014-Apr-09 13:29N 32°39' E 132°42'1313.8
2014-Apr-09 12:33N 32°42' E 132°27'1414.0
2014-Apr-09 11:33N 32°54' E 132°19'  

Dump ship's entire track history

sailing weather and tide predictions

Hachinohemaru — JE3089 — position and weather